Time;durP1;ratioP1;P1;durP2;ratioP2;P2;SDS_P1;SDS_P2;PMS_P1;PMS_P2;Temp;Humidity;BMP_temperature;BMP_pressure;BME280_temperature;BME280_humidity;BME280_pressure;Samples;Min_cycle;Max_cycle;Signal;HPM_P1;HPM_P2
2023/02/01 00:01:22;;;;;;;3.13;2.25;;;22.90;37.50;;;;;;6127740;28;80349;-49
2023/02/01 00:04:22;;;;;;;4.10;2.40;;;22.90;37.40;;;;;;6119264;28;80923;-48
2023/02/01 00:07:23;;;;;;;2.58;1.80;;;22.90;37.70;;;;;;6109608;28;80367;-48
2023/02/01 00:10:23;;;;;;;3.20;2.30;;;22.80;37.50;;;;;;6129615;28;82066;-45
2023/02/01 00:13:24;;;;;;;2.75;2.10;;;22.80;37.60;;;;;;6130884;28;81075;-46
2023/02/01 00:16:24;;;;;;;2.25;1.95;;;22.80;37.70;;;;;;6128358;28;80842;-47
2023/02/01 00:19:25;;;;;;;3.75;2.28;;;22.90;37.80;;;;;;6132310;28;81071;-46
2023/02/01 00:22:25;;;;;;;2.10;1.60;;;22.80;37.80;;;;;;6137810;28;80474;-46
2023/02/01 00:25:26;;;;;;;3.75;1.90;;;22.80;37.70;;;;;;6138420;28;80908;-47
2023/02/01 00:28:26;;;;;;;3.20;2.00;;;22.80;37.70;;;;;;6132970;28;80749;-47
2023/02/01 00:31:27;;;;;;;2.85;1.88;;;22.80;37.40;;;;;;6114929;28;80562;-58
2023/02/01 00:34:27;;;;;;;2.03;1.50;;;22.80;37.60;;;;;;6140361;28;80610;-60
2023/02/01 00:37:28;;;;;;;2.17;1.73;;;22.80;37.60;;;;;;6142744;28;80302;-59
2023/02/01 00:40:28;;;;;;;2.38;1.55;;;22.80;37.70;;;;;;6132957;28;80617;-59
2023/02/01 00:43:30;;;;;;;3.47;2.13;;;22.80;37.60;;;;;;6128821;28;80265;-61
2023/02/01 00:46:30;;;;;;;2.72;1.80;;;22.80;37.80;;;;;;6123728;28;81501;-60
2023/02/01 00:49:31;;;;;;;1.92;1.50;;;22.80;37.70;;;;;;6124601;28;80792;-58
2023/02/01 00:52:31;;;;;;;2.03;1.40;;;22.80;37.70;;;;;;6120491;28;80601;-59
2023/02/01 00:55:32;;;;;;;2.80;1.70;;;22.80;37.70;;;;;;6120572;28;80333;-58
2023/02/01 00:58:32;;;;;;;3.10;1.55;;;22.80;37.80;;;;;;6108896;28;80886;-57
2023/02/01 01:01:33;;;;;;;2.97;1.60;;;22.80;37.80;;;;;;6122231;28;82306;-58
2023/02/01 01:04:33;;;;;;;2.58;1.65;;;22.80;37.90;;;;;;6148865;28;81931;-58
2023/02/01 01:07:34;;;;;;;3.60;1.55;;;22.80;38.00;;;;;;6137032;28;80249;-58
2023/02/01 01:10:35;;;;;;;1.92;1.50;;;22.80;38.00;;;;;;6139077;28;83128;-59
2023/02/01 01:13:35;;;;;;;2.97;1.80;;;22.80;37.90;;;;;;6132479;28;81690;-59
2023/02/01 01:16:36;;;;;;;1.98;1.70;;;22.80;37.80;;;;;;6140292;28;80953;-58
2023/02/01 01:19:36;;;;;;;2.15;1.60;;;22.80;37.90;;;;;;6148490;28;81868;-59
2023/02/01 01:22:37;;;;;;;4.85;2.25;;;22.80;37.80;;;;;;6130212;28;81445;-60
2023/02/01 01:25:38;;;;;;;2.40;1.50;;;22.80;37.80;;;;;;6130124;28;80365;-59
2023/02/01 01:28:38;;;;;;;3.10;1.80;;;22.80;37.80;;;;;;6128650;28;80635;-58
2023/02/01 01:31:38;;;;;;;2.22;1.50;;;22.80;37.90;;;;;;6134694;28;81183;-58
2023/02/01 01:34:39;;;;;;;2.70;1.70;;;22.80;37.90;;;;;;6135863;28;80365;-58
2023/02/01 01:37:40;;;;;;;3.20;1.40;;;22.80;37.90;;;;;;6129012;28;83055;-59
2023/02/01 01:40:40;;;;;;;2.13;1.42;;;22.80;37.90;;;;;;6141408;28;82711;-60
2023/02/01 01:43:41;;;;;;;2.28;1.50;;;22.80;38.00;;;;;;6105166;28;83479;-60
2023/02/01 01:46:42;;;;;;;1.80;1.48;;;22.80;37.90;;;;;;6126406;28;81666;-59
2023/02/01 01:49:42;;;;;;;2.10;1.27;;;22.80;38.00;;;;;;6121485;28;82792;-59
2023/02/01 01:52:43;;;;;;;2.35;1.42;;;22.80;38.10;;;;;;6124074;28;80776;-58
2023/02/01 01:55:44;;;;;;;1.88;1.60;;;22.80;38.00;;;;;;6132904;28;80249;-59
2023/02/01 01:58:45;;;;;;;2.85;1.60;;;22.80;37.90;;;;;;6118087;28;82262;-59
2023/02/01 02:01:45;;;;;;;1.83;1.50;;;22.80;37.80;;;;;;6121993;28;83564;-59
2023/02/01 02:04:46;;;;;;;2.20;1.40;;;22.80;38.00;;;;;;6107704;28;80679;-59
2023/02/01 02:07:46;;;;;;;2.38;1.50;;;22.80;38.10;;;;;;6126659;28;82777;-59
2023/02/01 02:10:59;;;;;;;1.90;1.50;;;22.80;37.90;;;;;;6127902;28;83204;-59
2023/02/01 02:13:59;;;;;;;2.17;1.40;;;22.80;38.10;;;;;;6130674;28;81625;-59
2023/02/01 02:17:00;;;;;;;2.25;1.40;;;22.80;38.00;;;;;;6129744;28;81226;-59
2023/02/01 02:20:01;;;;;;;2.35;1.40;;;22.80;38.10;;;;;;6121379;28;81209;-58
2023/02/01 02:23:01;;;;;;;2.40;1.63;;;22.80;38.10;;;;;;6142247;28;81071;-60
2023/02/01 02:26:02;;;;;;;2.50;1.52;;;22.80;38.10;;;;;;6117678;28;81068;-59
2023/02/01 02:29:02;;;;;;;1.73;1.23;;;22.80;38.10;;;;;;6136872;28;81580;-58
2023/02/01 02:32:03;;;;;;;2.58;1.80;;;22.80;38.00;;;;;;6136474;28;83324;-59
2023/02/01 02:35:06;;;;;;;2.80;1.60;;;22.80;37.90;;;;;;6111463;28;92062;-58
2023/02/01 02:38:06;;;;;;;3.53;1.25;;;22.80;38.20;;;;;;6122799;28;83209;-45
2023/02/01 02:41:07;;;;;;;2.42;1.48;;;22.80;38.00;;;;;;6119670;28;83680;-45
2023/02/01 02:47:27;;;;;;;3.28;1.60;;;22.80;38.10;;;;;;6126545;28;83555;-48
2023/02/01 03:04:12;;;;;;;1.98;1.63;;;22.80;38.10;;;;;;6130165;28;82683;-49
2023/02/01 03:07:14;;;;;;;2.97;1.70;;;22.80;38.00;;;;;;6133896;28;82603;-48
2023/02/01 03:10:14;;;;;;;3.75;1.70;;;22.80;38.10;;;;;;6113943;28;83425;-47
2023/02/01 03:13:15;;;;;;;2.42;1.45;;;22.80;37.90;;;;;;6127095;28;83444;-49
2023/02/01 03:16:16;;;;;;;1.60;1.17;;;22.80;37.90;;;;;;6148073;28;80712;-48
2023/02/01 03:19:16;;;;;;;2.42;1.40;;;22.80;37.80;;;;;;6107649;28;83044;-46
2023/02/01 03:22:17;;;;;;;4.35;1.30;;;22.80;37.80;;;;;;6127134;28;82865;-46
2023/02/01 03:25:18;;;;;;;2.85;1.48;;;22.80;37.70;;;;;;6123450;28;80451;-46
2023/02/01 03:28:21;;;;;;;2.08;1.30;;;22.80;37.70;;;;;;6126550;28;82858;-47
2023/02/01 03:31:21;;;;;;;3.63;1.50;;;22.80;37.70;;;;;;6113083;28;80106;-46
2023/02/01 03:34:22;;;;;;;4.20;1.35;;;22.80;37.80;;;;;;6107543;28;82292;-45
2023/02/01 03:37:23;;;;;;;1.77;1.08;;;22.90;37.70;;;;;;6135205;28;83229;-46
2023/02/01 03:40:23;;;;;;;2.10;1.20;;;22.80;37.50;;;;;;6164633;28;83070;-49
2023/02/01 03:43:24;;;;;;;2.92;1.45;;;22.90;37.60;;;;;;6144078;28;83540;-46
2023/02/01 03:46:25;;;;;;;2.53;1.30;;;22.90;37.60;;;;;;6107410;28;83008;-47
2023/02/01 03:49:26;;;;;;;2.95;1.50;;;22.90;37.40;;;;;;6141942;28;83176;-48
2023/02/01 03:52:27;;;;;;;1.30;1.20;;;22.90;37.40;;;;;;6126642;28;82078;-51
2023/02/01 03:55:28;;;;;;;2.20;1.52;;;22.90;37.40;;;;;;6128696;28;81865;-48
2023/02/01 03:58:29;;;;;;;2.38;1.10;;;22.90;37.40;;;;;;6127685;28;80181;-48
2023/02/01 04:01:29;;;;;;;4.05;1.30;;;22.90;37.60;;;;;;6111169;28;82798;-48
2023/02/01 04:04:30;;;;;;;1.67;1.02;;;22.90;37.80;;;;;;6114571;28;83521;-48
2023/02/01 04:07:31;;;;;;;1.20;0.98;;;22.90;37.80;;;;;;6122962;28;83152;-48
2023/02/01 04:10:32;;;;;;;1.65;1.00;;;22.90;37.80;;;;;;6132798;28;80398;-48
2023/02/01 04:13:32;;;;;;;3.05;1.30;;;22.80;37.80;;;;;;6130195;28;81302;-53
2023/02/01 04:16:33;;;;;;;1.63;1.30;;;22.80;37.80;;;;;;6128174;28;80352;-48
2023/02/01 04:19:34;;;;;;;2.55;1.25;;;22.80;37.70;;;;;;6126408;28;82472;-48
2023/02/01 04:22:34;;;;;;;1.63;1.17;;;22.80;37.80;;;;;;6127678;28;80538;-46
2023/02/01 04:25:35;;;;;;;2.25;1.15;;;22.80;37.70;;;;;;6123893;28;80539;-50
2023/02/01 04:28:35;;;;;;;2.65;1.30;;;22.70;37.70;;;;;;6127476;28;80399;-59
2023/02/01 04:31:36;;;;;;;2.17;1.20;;;22.70;37.70;;;;;;6133867;28;80569;-60
2023/02/01 04:34:36;;;;;;;2.67;1.10;;;22.70;37.90;;;;;;6132842;28;80348;-58
2023/02/01 04:37:37;;;;;;;2.17;1.35;;;22.60;37.70;;;;;;6148319;28;80198;-60
2023/02/01 04:40:37;;;;;;;3.17;1.42;;;22.60;37.60;;;;;;6130599;28;80959;-59
2023/02/01 04:43:38;;;;;;;3.70;1.65;;;22.60;37.60;;;;;;6131555;28;81431;-60
2023/02/01 04:46:39;;;;;;;1.20;0.90;;;22.60;37.60;;;;;;6141738;28;84749;-59
2023/02/01 04:49:39;;;;;;;1.95;1.15;;;22.60;37.60;;;;;;6122412;28;81365;-58
2023/02/01 04:52:41;;;;;;;2.60;1.05;;;22.60;37.60;;;;;;6120899;28;80457;-60
2023/02/01 04:55:41;;;;;;;4.10;1.52;;;22.60;37.60;;;;;;6133562;28;80556;-60
2023/02/01 04:58:42;;;;;;;4.60;1.10;;;22.60;37.70;;;;;;6123653;28;80067;-59
2023/02/01 05:01:42;;;;;;;8.73;1.10;;;22.60;37.70;;;;;;6139475;28;80751;-58
2023/02/01 05:04:43;;;;;;;2.40;0.90;;;22.70;37.80;;;;;;6123379;28;82868;-53
2023/02/01 05:07:44;;;;;;;2.35;1.10;;;22.70;37.80;;;;;;6123110;28;81232;-48
2023/02/01 05:10:44;;;;;;;1.95;1.00;;;22.70;37.90;;;;;;6128057;28;80620;-48
2023/02/01 05:13:47;;;;;;;3.17;1.17;;;22.70;37.80;;;;;;6131094;28;80574;-59
2023/02/01 05:16:48;;;;;;;2.30;1.23;;;22.70;37.90;;;;;;6122644;28;80416;-60
2023/02/01 05:19:49;;;;;;;1.63;0.90;;;22.80;37.80;;;;;;6114828;28;81639;-48
2023/02/01 05:22:49;;;;;;;4.00;1.15;;;22.70;37.60;;;;;;6104079;28;82300;-49
2023/02/01 05:25:50;;;;;;;1.63;1.05;;;22.70;37.80;;;;;;6120399;28;82670;-48
2023/02/01 05:28:50;;;;;;;6.47;1.00;;;22.80;38.10;;;;;;6117203;28;81247;-60
2023/02/01 05:31:51;;;;;;;2.13;0.98;;;22.70;38.00;;;;;;6114495;28;81676;-50
2023/02/01 05:34:51;;;;;;;4.00;1.50;;;22.70;38.10;;;;;;6111827;28;82342;-49
2023/02/01 05:37:52;;;;;;;6.47;1.13;;;22.70;38.10;;;;;;6125754;28;80980;-58
2023/02/01 05:40:52;;;;;;;8.25;1.70;;;22.70;38.30;;;;;;6114648;28;80515;-52
2023/02/01 05:43:53;;;;;;;5.53;1.00;;;22.70;38.40;;;;;;6127534;28;80283;-48
2023/02/01 05:46:54;;;;;;;4.13;1.52;;;22.70;38.50;;;;;;6113657;28;80864;-49
2023/02/01 05:49:54;;;;;;;3.90;1.40;;;22.70;38.20;;;;;;6108998;28;80830;-49
2023/02/01 05:52:55;;;;;;;4.13;1.70;;;22.60;38.10;;;;;;6114414;28;80873;-48
2023/02/01 05:55:55;;;;;;;3.15;1.40;;;22.60;38.10;;;;;;6124547;28;81569;-61
2023/02/01 05:58:56;;;;;;;3.35;1.10;;;22.60;38.40;;;;;;6105493;28;80738;-62
2023/02/01 06:01:56;;;;;;;1.63;1.08;;;22.60;38.50;;;;;;6116712;28;80372;-50
2023/02/01 06:04:57;;;;;;;2.13;1.50;;;22.50;38.20;;;;;;6125332;28;82050;-50
2023/02/01 06:07:58;;;;;;;2.42;1.10;;;22.50;38.20;;;;;;6128663;28;80621;-50
2023/02/01 06:10:58;;;;;;;2.40;1.45;;;22.60;38.40;;;;;;6110495;28;81794;-50
2023/02/01 06:13:59;;;;;;;2.25;1.48;;;22.50;38.60;;;;;;6119247;28;80839;-47
2023/02/01 06:16:59;;;;;;;6.55;1.77;;;22.50;38.70;;;;;;6098182;28;84923;-48
2023/02/01 06:20:00;;;;;;;5.38;1.65;;;22.50;38.70;;;;;;6105823;28;81209;-59
2023/02/01 06:23:01;;;;;;;5.00;1.50;;;22.40;38.80;;;;;;6127389;28;80607;-59
2023/02/01 06:26:02;;;;;;;3.38;1.58;;;22.40;39.30;;;;;;6131976;28;81145;-58
2023/02/01 06:29:02;;;;;;;4.05;1.75;;;22.40;38.50;;;;;;6119856;28;81102;-58
2023/02/01 06:32:03;;;;;;;4.32;1.50;;;22.30;38.20;;;;;;6123011;28;80696;-59
2023/02/01 06:35:03;;;;;;;4.97;1.60;;;22.30;38.20;;;;;;6106574;28;81732;-59
2023/02/01 06:38:04;;;;;;;3.53;2.03;;;22.20;38.10;;;;;;6110434;28;80574;-59
2023/02/01 06:41:04;;;;;;;4.70;1.85;;;22.20;38.00;;;;;;6053946;28;85544;-48
2023/02/01 06:44:05;;;;;;;3.78;1.80;;;22.20;38.00;;;;;;6046296;28;83458;-49
2023/02/01 06:47:05;;;;;;;5.13;2.35;;;22.20;38.10;;;;;;6105456;28;80353;-50
2023/02/01 06:50:06;;;;;;;5.60;2.20;;;22.10;38.00;;;;;;6119315;28;82101;-48
2023/02/01 06:53:07;;;;;;;4.75;1.90;;;22.10;38.10;;;;;;6078096;28;85056;-52
2023/02/01 06:56:07;;;;;;;6.63;2.17;;;22.10;38.10;;;;;;6070413;28;88025;-48
2023/02/01 06:59:08;;;;;;;4.78;2.00;;;22.10;38.10;;;;;;6099961;28;81247;-52
2023/02/01 07:02:08;;;;;;;5.05;1.95;;;22.10;38.20;;;;;;6107478;28;80519;-48
2023/02/01 07:05:09;;;;;;;5.65;2.00;;;22.10;38.00;;;;;;6104576;28;80914;-52
2023/02/01 07:08:09;;;;;;;4.05;2.05;;;22.00;38.00;;;;;;6109674;28;85102;-52
2023/02/01 07:11:10;;;;;;;3.75;2.08;;;22.10;38.00;;;;;;6117240;28;81483;-50
2023/02/01 07:14:10;;;;;;;6.05;2.25;;;22.00;38.10;;;;;;6115891;28;80539;-48
2023/02/01 07:17:11;;;;;;;4.47;1.77;;;22.00;38.10;;;;;;6106058;28;82168;-48
2023/02/01 07:20:11;;;;;;;6.40;2.45;;;22.00;38.10;;;;;;6092320;28;82040;-48
2023/02/01 07:23:12;;;;;;;4.47;2.20;;;22.00;38.20;;;;;;6113859;28;81667;-49
2023/02/01 07:26:12;;;;;;;5.55;2.15;;;22.00;38.10;;;;;;6109156;28;80475;-48
2023/02/01 07:29:13;;;;;;;4.28;2.10;;;22.00;38.10;;;;;;6118334;28;81643;-48
2023/02/01 07:32:17;;;;;;;5.78;2.22;;;22.00;37.90;;;;;;6110294;28;81293;-46
2023/02/01 07:35:18;;;;;;;2.97;1.80;;;22.00;37.90;;;;;;6113162;28;81150;-47
2023/02/01 07:38:21;;;;;;;4.80;2.47;;;22.00;38.00;;;;;;6109830;28;80572;-47
2023/02/01 07:41:21;;;;;;;3.35;1.77;;;22.00;37.90;;;;;;6111719;28;80129;-48
2023/02/01 07:44:23;;;;;;;5.28;1.95;;;22.00;37.80;;;;;;6110371;28;81243;-47
2023/02/01 07:47:23;;;;;;;5.20;2.42;;;22.00;37.80;;;;;;6099721;28;80869;-49
2023/02/01 07:50:24;;;;;;;4.47;2.65;;;21.90;37.80;;;;;;6101577;28;85348;-46
2023/02/01 07:53:24;;;;;;;3.95;2.17;;;22.00;37.80;;;;;;6103873;28;82532;-49
2023/02/01 07:56:25;;;;;;;5.25;2.53;;;22.00;37.80;;;;;;6098700;28;80803;-48
2023/02/01 07:59:25;;;;;;;7.78;2.22;;;21.90;37.70;;;;;;6098480;28;84253;-47
2023/02/01 08:02:26;;;;;;;3.95;2.17;;;21.90;37.80;;;;;;6102092;28;80592;-48
2023/02/01 08:05:26;;;;;;;5.45;2.20;;;21.90;37.80;;;;;;6104706;28;80742;-50
2023/02/01 08:08:27;;;;;;;3.88;2.13;;;21.90;37.80;;;;;;6112085;28;81920;-51
2023/02/01 08:11:27;;;;;;;4.97;2.50;;;21.90;37.70;;;;;;6108847;28;80321;-48
2023/02/01 08:14:28;;;;;;;4.43;2.15;;;21.90;37.80;;;;;;6106271;28;80626;-49
2023/02/01 08:17:29;;;;;;;5.70;2.42;;;21.90;37.90;;;;;;6105972;28;81525;-46
2023/02/01 08:20:29;;;;;;;3.88;2.08;;;21.90;37.90;;;;;;6117495;28;80932;-52
2023/02/01 08:23:30;;;;;;;6.25;2.60;;;21.90;38.00;;;;;;6111018;28;81402;-48
2023/02/01 08:26:30;;;;;;;6.10;2.78;;;21.90;38.10;;;;;;6118862;28;81866;-48
2023/02/01 08:29:31;;;;;;;8.15;2.70;;;22.00;38.30;;;;;;6119708;28;80705;-51
2023/02/01 08:32:31;;;;;;;6.30;2.50;;;22.00;37.70;;;;;;6124167;28;82304;-47
2023/02/01 08:35:32;;;;;;;10.23;2.85;;;22.00;37.50;;;;;;6108797;28;80814;-49
2023/02/01 08:38:32;;;;;;;5.18;2.63;;;22.10;37.50;;;;;;6108254;28;80822;-49
2023/02/01 08:41:33;;;;;;;7.65;2.78;;;22.20;37.50;;;;;;6111918;28;80291;-50
2023/02/01 08:44:33;;;;;;;4.90;2.10;;;22.20;37.60;;;;;;6121042;28;85134;-48
2023/02/01 08:47:34;;;;;;;4.63;2.22;;;22.30;37.60;;;;;;6102189;28;80455;-49
2023/02/01 08:50:34;;;;;;;6.90;2.85;;;22.30;37.80;;;;;;6116998;28;80554;-49
2023/02/01 08:53:35;;;;;;;5.90;2.75;;;22.40;37.70;;;;;;6115754;28;84498;-50
2023/02/01 08:56:36;;;;;;;5.68;2.85;;;22.40;37.80;;;;;;6109607;28;81575;-49
2023/02/01 08:59:37;;;;;;;5.13;2.60;;;22.50;37.70;;;;;;6118887;28;80426;-50
2023/02/01 09:02:37;;;;;;;7.38;2.58;;;22.50;37.70;;;;;;6111031;28;83489;-49
2023/02/01 09:05:38;;;;;;;3.25;2.08;;;22.50;37.70;;;;;;6123866;28;80917;-48
2023/02/01 09:08:38;;;;;;;8.23;2.80;;;22.60;37.70;;;;;;6107881;28;81941;-51
2023/02/01 09:11:39;;;;;;;8.75;3.08;;;22.50;37.80;;;;;;6123708;28;86975;-49
2023/02/01 09:14:39;;;;;;;6.28;2.80;;;22.60;37.70;;;;;;6119670;28;80172;-50
2023/02/01 09:17:43;;;;;;;5.53;2.55;;;22.60;37.60;;;;;;6111600;28;80441;-48
2023/02/01 09:20:43;;;;;;;6.22;2.22;;;22.60;37.60;;;;;;6116201;28;83549;-48
2023/02/01 09:23:45;;;;;;;5.68;2.45;;;22.60;37.70;;;;;;6114114;28;80251;-57
2023/02/01 09:26:45;;;;;;;5.38;2.83;;;22.70;37.70;;;;;;6111436;28;81418;-58
2023/02/01 09:29:49;;;;;;;4.82;2.08;;;22.70;37.70;;;;;;6113440;28;81809;-59
2023/02/01 09:32:50;;;;;;;6.55;2.60;;;22.70;37.80;;;;;;6112170;28;80226;-60
2023/02/01 09:35:50;;;;;;;6.15;2.90;;;22.70;37.60;;;;;;6111286;28;82540;-60
2023/02/01 09:38:51;;;;;;;7.80;2.97;;;22.80;37.70;;;;;;6106958;28;80075;-59
2023/02/01 09:41:52;;;;;;;4.93;2.45;;;22.80;37.50;;;;;;6113731;28;80126;-59
2023/02/01 09:44:53;;;;;;;5.55;2.03;;;22.80;37.60;;;;;;6114836;28;83118;-61
2023/02/01 09:47:53;;;;;;;5.57;2.70;;;22.80;37.50;;;;;;6121145;28;81037;-59
2023/02/01 09:50:54;;;;;;;5.57;2.28;;;22.80;37.70;;;;;;6113238;28;80529;-60
2023/02/01 09:53:54;;;;;;;3.92;2.10;;;22.80;37.80;;;;;;6116350;28;80031;-59
2023/02/01 09:56:55;;;;;;;4.93;2.33;;;22.90;37.70;;;;;;6109636;28;80954;-59
2023/02/01 09:59:56;;;;;;;3.20;1.85;;;22.90;37.70;;;;;;6119224;28;80780;-58
2023/02/01 10:02:56;;;;;;;5.47;2.67;;;22.90;37.70;;;;;;6120980;28;81072;-58
2023/02/01 10:05:56;;;;;;;3.58;1.95;;;22.90;37.60;;;;;;6118400;28;80654;-59
2023/02/01 10:08:57;;;;;;;5.75;2.67;;;22.90;37.50;;;;;;6122178;28;83621;-58
2023/02/01 10:11:58;;;;;;;3.58;2.25;;;22.90;37.70;;;;;;6119404;28;80728;-59
2023/02/01 10:14:58;;;;;;;5.57;2.63;;;22.90;37.60;;;;;;6114918;28;81075;-60
2023/02/01 10:17:59;;;;;;;4.50;2.60;;;22.90;37.70;;;;;;6120608;28;83225;-59
2023/02/01 10:20:59;;;;;;;4.55;2.55;;;22.90;37.70;;;;;;6112193;28;80292;-59
2023/02/01 10:24:00;;;;;;;4.38;2.10;;;22.90;37.70;;;;;;6129538;28;86563;-61
2023/02/01 10:27:00;;;;;;;4.95;2.28;;;22.90;37.70;;;;;;6117811;28;81546;-59
2023/02/01 10:30:01;;;;;;;3.42;2.17;;;22.90;37.70;;;;;;6108157;28;80013;-60
2023/02/01 10:33:02;;;;;;;6.22;2.25;;;23.00;37.90;;;;;;6113953;28;80426;-61
2023/02/01 10:36:03;;;;;;;7.50;2.60;;;23.00;37.80;;;;;;6114272;28;85310;-59
2023/02/01 10:39:04;;;;;;;6.55;2.88;;;23.00;37.80;;;;;;6111150;28;80267;-60
2023/02/01 10:42:04;;;;;;;7.00;2.67;;;23.00;37.90;;;;;;6117123;28;80580;-61
2023/02/01 10:45:05;;;;;;;7.85;2.35;;;23.00;37.90;;;;;;6125054;28;85343;-58
2023/02/01 10:48:05;;;;;;;4.10;2.28;;;23.00;38.00;;;;;;6118458;28;81878;-57
2023/02/01 10:51:06;;;;;;;5.20;2.80;;;22.90;37.80;;;;;;6126276;28;80188;-60
2023/02/01 10:54:06;;;;;;;14.18;2.95;;;23.00;38.00;;;;;;6114710;28;83526;-55
2023/02/01 10:57:07;;;;;;;5.28;2.50;;;23.00;37.80;;;;;;6107118;28;82473;-59
2023/02/01 11:00:08;;;;;;;4.55;2.40;;;23.00;37.80;;;;;;6130396;28;80564;-59
2023/02/01 11:03:08;;;;;;;5.57;2.65;;;23.00;37.70;;;;;;6122180;28;82078;-59
2023/02/01 11:06:09;;;;;;;4.70;2.40;;;23.00;37.60;;;;;;6108330;28;82352;-60
2023/02/01 11:09:09;;;;;;;4.30;2.70;;;23.00;37.70;;;;;;6109318;28;81657;-62
2023/02/01 11:12:10;;;;;;;7.50;2.30;;;23.00;37.80;;;;;;6113707;28;80319;-58
2023/02/01 11:15:10;;;;;;;6.15;2.35;;;23.00;37.90;;;;;;6117846;28;81443;-59
2023/02/01 11:18:11;;;;;;;4.20;2.42;;;23.00;38.10;;;;;;6116666;28;80417;-59
2023/02/01 11:21:11;;;;;;;7.10;2.13;;;23.10;38.10;;;;;;6113619;28;80592;-61
2023/02/01 11:24:12;;;;;;;8.48;2.97;;;23.00;38.10;;;;;;6110419;28;80684;-57
2023/02/01 11:27:12;;;;;;;5.47;2.60;;;23.10;38.20;;;;;;6124635;28;80746;-60
2023/02/01 11:30:13;;;;;;;6.95;2.92;;;23.10;38.40;;;;;;6104918;28;81370;-61
2023/02/01 11:33:13;;;;;;;6.07;3.00;;;23.10;38.40;;;;;;6118530;28;80426;-58
2023/02/01 11:36:14;;;;;;;4.38;2.28;;;23.10;38.20;;;;;;6111626;28;82960;-58
2023/02/01 11:39:14;;;;;;;6.22;2.63;;;23.10;38.30;;;;;;6119509;28;80399;-60
2023/02/01 11:42:15;;;;;;;4.72;2.33;;;23.10;38.20;;;;;;6118401;28;81133;-60
2023/02/01 11:45:16;;;;;;;3.15;2.42;;;23.10;38.20;;;;;;6109617;28;81730;-57
2023/02/01 11:48:16;;;;;;;7.13;2.63;;;23.10;38.50;;;;;;6111186;28;80781;-57
2023/02/01 11:51:22;;;;;;;6.10;2.20;;;23.10;38.20;;;;;;6101719;28;81835;-59
2023/02/01 11:54:23;;;;;;;8.48;2.72;;;23.10;38.10;;;;;;6102856;28;84213;-59
2023/02/01 11:57:23;;;;;;;4.93;2.13;;;23.10;38.30;;;;;;6119188;28;80448;-59
2023/02/01 12:00:24;;;;;;;6.50;2.47;;;23.10;38.30;;;;;;6129188;28;85590;-60
2023/02/01 12:03:24;;;;;;;7.38;2.72;;;23.10;38.20;;;;;;6115188;28;80794;-59
2023/02/01 12:06:25;;;;;;;22.73;4.05;;;23.10;38.20;;;;;;6104990;28;80771;-59
2023/02/01 12:09:26;;;;;;;44.85;6.70;;;23.10;38.20;;;;;;6131164;28;85977;-61
2023/02/01 12:12:26;;;;;;;75.57;9.00;;;23.10;38.20;;;;;;6132418;28;84653;-59
2023/02/01 12:15:28;;;;;;;69.32;11.60;;;23.00;38.20;;;;;;6116822;28;80799;-59
2023/02/01 12:18:29;;;;;;;74.43;10.95;;;23.00;38.30;;;;;;6104169;28;87839;-60
2023/02/01 12:21:29;;;;;;;65.13;10.63;;;23.00;38.30;;;;;;6104824;28;84260;-60
2023/02/01 12:24:31;;;;;;;94.68;10.60;;;23.00;39.10;;;;;;6114115;28;83094;-59
2023/02/01 12:27:31;;;;;;;53.97;7.85;;;23.00;38.40;;;;;;6113427;28;87014;-59
2023/02/01 12:30:32;;;;;;;42.28;6.85;;;23.00;38.40;;;;;;6106221;28;82903;-59
2023/02/01 12:33:33;;;;;;;35.15;6.82;;;22.90;38.40;;;;;;6115119;28;81220;-60
2023/02/01 12:36:33;;;;;;;43.05;6.57;;;22.90;38.40;;;;;;6115235;28;80581;-61
2023/02/01 12:39:34;;;;;;;42.88;6.32;;;22.90;38.30;;;;;;6124150;28;83348;-58
2023/02/01 12:42:34;;;;;;;35.60;5.93;;;22.90;38.40;;;;;;6111968;28;80617;-58
2023/02/01 12:45:35;;;;;;;26.67;4.68;;;22.90;38.40;;;;;;6113269;28;80241;-53
2023/02/01 12:48:35;;;;;;;21.38;4.30;;;22.90;38.40;;;;;;6110745;28;81399;-50
2023/02/01 12:51:36;;;;;;;22.70;5.35;;;22.80;38.30;;;;;;6108618;28;80553;-48
2023/02/01 12:54:36;;;;;;;21.38;5.18;;;22.80;38.20;;;;;;6115362;28;80474;-48
2023/02/01 12:57:37;;;;;;;24.73;5.20;;;22.80;38.30;;;;;;6120373;28;80515;-47
2023/02/01 13:00:37;;;;;;;25.77;5.00;;;22.80;38.30;;;;;;6114691;28;80301;-50
2023/02/01 13:03:39;;;;;;;21.83;5.10;;;22.80;38.70;;;;;;6116977;28;80282;-60
2023/02/01 13:06:39;;;;;;;15.15;4.43;;;22.80;39.00;;;;;;6111190;28;81030;-60
2023/02/01 13:09:40;;;;;;;18.75;4.50;;;22.80;39.20;;;;;;6123393;28;80274;-60
2023/02/01 13:12:40;;;;;;;15.10;4.43;;;22.70;39.40;;;;;;6133652;28;81436;-57
2023/02/01 13:15:41;;;;;;;18.13;5.55;;;22.70;39.60;;;;;;6122201;28;80763;-61
2023/02/01 13:18:42;;;;;;;18.70;5.90;;;22.70;39.40;;;;;;6110291;28;80509;-58
2023/02/01 13:21:43;;;;;;;13.05;4.88;;;22.70;39.40;;;;;;6108127;28;80266;-59
2023/02/01 13:24:45;;;;;;;17.23;5.55;;;22.70;39.50;;;;;;6103436;28;82559;-61
2023/02/01 13:27:45;;;;;;;17.17;5.00;;;22.70;39.90;;;;;;6116199;28;80529;-60
2023/02/01 13:30:46;;;;;;;19.92;5.38;;;22.70;39.90;;;;;;6130625;28;80893;-60
2023/02/01 13:33:46;;;;;;;14.43;5.38;;;22.70;40.00;;;;;;6126651;28;80349;-59
2023/02/01 13:36:47;;;;;;;13.15;5.35;;;22.70;40.00;;;;;;6105786;28;84017;-61
2023/02/01 13:39:47;;;;;;;15.73;4.70;;;22.60;40.40;;;;;;6112322;28;85461;-52
2023/02/01 13:42:48;;;;;;;11.35;5.07;;;22.60;40.10;;;;;;6130175;28;83734;-52
2023/02/01 13:45:48;;;;;;;11.65;5.00;;;22.70;40.40;;;;;;6112040;28;82069;-48
2023/02/01 13:48:49;;;;;;;11.32;4.15;;;22.60;40.10;;;;;;6127694;28;80426;-51
2023/02/01 13:51:49;;;;;;;9.85;4.82;;;22.60;39.80;;;;;;6129327;28;80449;-50
2023/02/01 13:54:50;;;;;;;7.63;4.28;;;22.60;39.60;;;;;;6128357;28;80403;-51
2023/02/01 13:57:50;;;;;;;7.20;3.70;;;22.60;39.40;;;;;;6128732;28;82842;-50
2023/02/01 14:00:51;;;;;;;7.22;3.72;;;22.50;38.90;;;;;;6132680;28;81037;-49
2023/02/01 14:03:52;;;;;;;7.28;3.35;;;22.50;38.80;;;;;;6134317;28;80216;-51
2023/02/01 14:06:52;;;;;;;9.95;3.38;;;22.50;38.10;;;;;;6142039;28;80698;-50
2023/02/01 14:09:53;;;;;;;4.60;2.63;;;22.50;37.80;;;;;;6129933;28;80414;-49
2023/02/01 14:12:53;;;;;;;6.22;2.97;;;22.50;37.60;;;;;;6109006;28;85150;-50
2023/02/01 14:15:54;;;;;;;7.60;2.90;;;22.50;37.20;;;;;;6113969;28;80952;-46
2023/02/01 14:18:55;;;;;;;5.57;2.50;;;22.50;37.00;;;;;;6126972;28;81240;-46
2023/02/01 14:22:06;;;;;;;4.97;2.33;;;22.60;36.90;;;;;;6122933;28;80958;-47
2023/02/01 14:25:07;;;;;;;3.90;2.15;;;22.60;36.70;;;;;;6122031;28;80420;-48
2023/02/01 14:28:07;;;;;;;3.55;2.40;;;22.70;37.00;;;;;;6112310;28;82124;-51
2023/02/01 14:31:08;;;;;;;7.93;2.92;;;22.60;37.60;;;;;;6105215;28;80223;-52
2023/02/01 14:34:08;;;;;;;9.93;2.78;;;22.70;37.70;;;;;;6121093;28;80760;-52
2023/02/01 14:37:09;;;;;;;4.55;2.92;;;22.70;37.80;;;;;;6105607;28;87570;-47
2023/02/01 14:40:09;;;;;;;4.03;2.45;;;22.70;37.70;;;;;;6113292;28;82943;-50
2023/02/01 14:43:10;;;;;;;6.78;2.22;;;22.80;37.90;;;;;;6105394;28;81219;-50
2023/02/01 14:46:10;;;;;;;3.20;2.03;;;22.80;38.30;;;;;;6095011;28;81126;-52
2023/02/01 14:49:11;;;;;;;4.53;2.78;;;22.90;37.90;;;;;;6101415;28;80543;-52
2023/02/01 14:52:11;;;;;;;6.93;2.47;;;22.90;37.80;;;;;;6082090;28;81058;-49
2023/02/01 14:55:12;;;;;;;4.90;2.78;;;22.90;37.80;;;;;;6110472;28;80689;-47
2023/02/01 14:58:15;;;;;;;7.63;3.10;;;22.90;37.60;;;;;;6110373;28;81573;-49
2023/02/01 15:01:16;;;;;;;4.25;2.47;;;22.90;37.40;;;;;;6103519;28;82266;-51
2023/02/01 15:04:18;;;;;;;3.30;2.15;;;22.90;37.30;;;;;;6112770;28;81868;-48
2023/02/01 15:07:18;;;;;;;4.97;2.50;;;22.90;37.20;;;;;;6101645;28;82914;-48
2023/02/01 15:10:19;;;;;;;4.97;2.30;;;22.90;37.10;;;;;;6098440;28;81717;-51
2023/02/01 15:13:19;;;;;;;4.32;2.47;;;22.90;37.00;;;;;;6112594;28;82502;-48
2023/02/01 15:16:20;;;;;;;4.32;2.45;;;23.00;37.10;;;;;;6099617;28;80693;-50
2023/02/01 15:19:23;;;;;;;3.28;1.98;;;23.00;37.00;;;;;;6114386;28;80597;-49
2023/02/01 15:22:24;;;;;;;4.13;2.08;;;23.00;37.10;;;;;;6103447;28;80229;-49
2023/02/01 15:25:24;;;;;;;2.83;1.98;;;23.00;37.10;;;;;;6111436;28;82913;-49
2023/02/01 15:28:25;;;;;;;4.85;2.22;;;23.00;37.00;;;;;;6106525;28;81177;-51
2023/02/01 15:31:25;;;;;;;4.82;2.30;;;22.90;37.00;;;;;;6128392;28;82188;-50
2023/02/01 15:34:26;;;;;;;3.88;2.17;;;23.00;36.80;;;;;;6105307;28;81844;-50
2023/02/01 15:37:26;;;;;;;3.80;2.30;;;22.90;36.90;;;;;;6108553;28;82360;-51
2023/02/01 15:40:27;;;;;;;4.15;1.98;;;23.00;36.90;;;;;;6109530;28;81376;-47
2023/02/01 15:43:27;;;;;;;3.17;2.00;;;23.00;37.00;;;;;;6102586;28;80984;-50
2023/02/01 15:46:28;;;;;;;3.75;1.92;;;23.00;37.10;;;;;;6110756;28;81068;-51
2023/02/01 15:49:29;;;;;;;2.42;1.90;;;23.00;37.20;;;;;;6112818;28;80805;-48
2023/02/01 15:52:29;;;;;;;2.92;1.92;;;23.00;37.10;;;;;;6117205;28;80389;-52
2023/02/01 15:55:30;;;;;;;3.30;2.15;;;23.00;37.20;;;;;;6110367;28;81134;-47